Terminal Aerodrome Forecast
Issued by NWS

Home | Current Version | Previous Version | Text Only | Print | Product List | Glossary Off
Versions: 1 2 3 4 5 6 7 8 9 10 11 12 13 14 15 16 17 18 19

551
FTUS43 KTOP 181125
TAFMHK
TAF
KMHK 181125Z 1812/1912 VRB03KT P6SM VCSH BKN100
     FM181500 21007KT P6SM SCT120
     FM190000 32005KT P6SM SKC=

USA.gov is the U.S. government's official web portal to all federal, state and local government web resources and services.